sensor_id;sensor_type;location;lat;lon;timestamp;temperature;humidity
6654;DHT22;3363;50.942;7.034;2023-04-24T00:01:39;13.90;64.00
6654;DHT22;3363;50.942;7.034;2023-04-24T00:04:07;13.90;63.80
6654;DHT22;3363;50.942;7.034;2023-04-24T00:06:36;13.90;63.60
6654;DHT22;3363;50.942;7.034;2023-04-24T00:09:04;13.80;62.90
6654;DHT22;3363;50.942;7.034;2023-04-24T00:11:31;13.80;63.30
6654;DHT22;3363;50.942;7.034;2023-04-24T00:13:58;13.70;64.00
6654;DHT22;3363;50.942;7.034;2023-04-24T00:16:29;13.80;63.40
6654;DHT22;3363;50.942;7.034;2023-04-24T00:18:55;13.70;64.30
6654;DHT22;3363;50.942;7.034;2023-04-24T00:21:24;13.80;64.50
6654;DHT22;3363;50.942;7.034;2023-04-24T00:23:52;13.80;64.50
6654;DHT22;3363;50.942;7.034;2023-04-24T00:26:19;13.80;64.50
6654;DHT22;3363;50.942;7.034;2023-04-24T00:28:46;13.70;64.30
6654;DHT22;3363;50.942;7.034;2023-04-24T00:31:13;13.60;64.80
6654;DHT22;3363;50.942;7.034;2023-04-24T00:33:40;13.70;65.10
6654;DHT22;3363;50.942;7.034;2023-04-24T00:36:07;13.60;64.50
6654;DHT22;3363;50.942;7.034;2023-04-24T00:38:35;13.70;65.40
6654;DHT22;3363;50.942;7.034;2023-04-24T00:41:02;13.70;64.70
6654;DHT22;3363;50.942;7.034;2023-04-24T00:43:29;13.80;64.90
6654;DHT22;3363;50.942;7.034;2023-04-24T00:45:56;13.80;65.00
6654;DHT22;3363;50.942;7.034;2023-04-24T00:48:25;13.80;65.10
6654;DHT22;3363;50.942;7.034;2023-04-24T00:50:52;13.80;64.80
6654;DHT22;3363;50.942;7.034;2023-04-24T00:53:19;13.70;64.80
6654;DHT22;3363;50.942;7.034;2023-04-24T00:55:48;13.70;64.60
6654;DHT22;3363;50.942;7.034;2023-04-24T00:58:15;13.70;65.10
6654;DHT22;3363;50.942;7.034;2023-04-24T01:00:42;13.80;65.00
6654;DHT22;3363;50.942;7.034;2023-04-24T01:03:10;13.80;64.30
6654;DHT22;3363;50.942;7.034;2023-04-24T01:05:39;13.80;64.20
6654;DHT22;3363;50.942;7.034;2023-04-24T01:08:06;13.80;64.10
6654;DHT22;3363;50.942;7.034;2023-04-24T01:10:34;13.80;64.00
6654;DHT22;3363;50.942;7.034;2023-04-24T01:13:05;13.80;63.90
6654;DHT22;3363;50.942;7.034;2023-04-24T01:15:32;13.70;61.70
6654;DHT22;3363;50.942;7.034;2023-04-24T01:17:59;13.70;63.00
6654;DHT22;3363;50.942;7.034;2023-04-24T01:20:26;13.70;62.20
6654;DHT22;3363;50.942;7.034;2023-04-24T01:22:55;13.70;61.70
6654;DHT22;3363;50.942;7.034;2023-04-24T01:25:23;13.70;60.60
6654;DHT22;3363;50.942;7.034;2023-04-24T01:27:50;13.60;60.20
6654;DHT22;3363;50.942;7.034;2023-04-24T01:30:18;13.60;60.60
6654;DHT22;3363;50.942;7.034;2023-04-24T01:32:45;13.40;58.60
6654;DHT22;3363;50.942;7.034;2023-04-24T01:35:12;13.40;60.60
6654;DHT22;3363;50.942;7.034;2023-04-24T01:37:39;13.40;59.60
6654;DHT22;3363;50.942;7.034;2023-04-24T01:40:08;13.50;59.20
6654;DHT22;3363;50.942;7.034;2023-04-24T01:42:35;13.40;58.20
6654;DHT22;3363;50.942;7.034;2023-04-24T01:45:04;13.50;59.60
6654;DHT22;3363;50.942;7.034;2023-04-24T01:47:32;13.50;58.20
6654;DHT22;3363;50.942;7.034;2023-04-24T01:49:59;13.50;58.90
6654;DHT22;3363;50.942;7.034;2023-04-24T01:52:26;13.40;57.30
6654;DHT22;3363;50.942;7.034;2023-04-24T01:54:54;13.40;59.00
6654;DHT22;3363;50.942;7.034;2023-04-24T01:57:23;13.30;57.60
6654;DHT22;3363;50.942;7.034;2023-04-24T01:59:51;13.40;59.20
6654;DHT22;3363;50.942;7.034;2023-04-24T02:02:18;13.30;56.20
6654;DHT22;3363;50.942;7.034;2023-04-24T02:04:46;13.20;58.30
6654;DHT22;3363;50.942;7.034;2023-04-24T02:07:13;13.20;59.00
6654;DHT22;3363;50.942;7.034;2023-04-24T02:09:40;13.20;57.70
6654;DHT22;3363;50.942;7.034;2023-04-24T02:12:07;13.10;58.10
6654;DHT22;3363;50.942;7.034;2023-04-24T02:14:35;13.20;57.20
6654;DHT22;3363;50.942;7.034;2023-04-24T02:17:02;13.10;56.40
6654;DHT22;3363;50.942;7.034;2023-04-24T02:19:30;13.00;58.80
6654;DHT22;3363;50.942;7.034;2023-04-24T02:21:57;13.10;58.50
6654;DHT22;3363;50.942;7.034;2023-04-24T02:24:24;13.00;58.30
6654;DHT22;3363;50.942;7.034;2023-04-24T02:26:51;13.00;56.50
6654;DHT22;3363;50.942;7.034;2023-04-24T02:29:18;13.00;57.70
6654;DHT22;3363;50.942;7.034;2023-04-24T02:31:46;13.00;58.50
6654;DHT22;3363;50.942;7.034;2023-04-24T02:34:13;12.90;57.30
6654;DHT22;3363;50.942;7.034;2023-04-24T02:36:40;12.90;57.90
6654;DHT22;3363;50.942;7.034;2023-04-24T02:39:07;13.00;58.70
6654;DHT22;3363;50.942;7.034;2023-04-24T02:41:34;12.90;57.00
6654;DHT22;3363;50.942;7.034;2023-04-24T02:44:01;12.80;56.60
6654;DHT22;3363;50.942;7.034;2023-04-24T02:46:28;12.90;58.30
6654;DHT22;3363;50.942;7.034;2023-04-24T02:48:56;13.00;58.40
6654;DHT22;3363;50.942;7.034;2023-04-24T02:51:23;13.00;57.70
6654;DHT22;3363;50.942;7.034;2023-04-24T02:53:50;13.00;55.90
6654;DHT22;3363;50.942;7.034;2023-04-24T02:56:17;13.00;57.20
6654;DHT22;3363;50.942;7.034;2023-04-24T02:58:44;12.90;57.50
6654;DHT22;3363;50.942;7.034;2023-04-24T03:01:11;12.90;58.80
6654;DHT22;3363;50.942;7.034;2023-04-24T03:03:38;13.00;57.70
6654;DHT22;3363;50.942;7.034;2023-04-24T03:06:06;13.00;57.90
6654;DHT22;3363;50.942;7.034;2023-04-24T03:08:34;13.00;58.00
6654;DHT22;3363;50.942;7.034;2023-04-24T03:11:00;13.00;58.20
6654;DHT22;3363;50.942;7.034;2023-04-24T03:13:27;12.90;57.60
6654;DHT22;3363;50.942;7.034;2023-04-24T03:15:55;12.90;59.00
6654;DHT22;3363;50.942;7.034;2023-04-24T03:18:21;13.00;57.40
6654;DHT22;3363;50.942;7.034;2023-04-24T03:20:48;12.90;57.80
6654;DHT22;3363;50.942;7.034;2023-04-24T03:23:17;12.80;57.20
6654;DHT22;3363;50.942;7.034;2023-04-24T03:25:44;12.90;57.80
6654;DHT22;3363;50.942;7.034;2023-04-24T03:28:11;12.80;58.00
6654;DHT22;3363;50.942;7.034;2023-04-24T03:30:38;12.80;58.40
6654;DHT22;3363;50.942;7.034;2023-04-24T03:33:05;12.80;58.00
6654;DHT22;3363;50.942;7.034;2023-04-24T03:35:31;12.70;58.40
6654;DHT22;3363;50.942;7.034;2023-04-24T03:37:58;12.60;58.50
6654;DHT22;3363;50.942;7.034;2023-04-24T03:40:27;12.70;59.10
6654;DHT22;3363;50.942;7.034;2023-04-24T03:42:55;12.60;58.50
6654;DHT22;3363;50.942;7.034;2023-04-24T03:45:22;12.70;56.80
6654;DHT22;3363;50.942;7.034;2023-04-24T03:47:49;12.60;57.80
6654;DHT22;3363;50.942;7.034;2023-04-24T03:50:16;12.60;56.70
6654;DHT22;3363;50.942;7.034;2023-04-24T03:52:43;12.70;57.00
6654;DHT22;3363;50.942;7.034;2023-04-24T03:55:10;12.70;56.30
6654;DHT22;3363;50.942;7.034;2023-04-24T03:57:39;12.70;58.60
6654;DHT22;3363;50.942;7.034;2023-04-24T04:00:07;12.70;57.60
6654;DHT22;3363;50.942;7.034;2023-04-24T04:02:35;12.70;58.60
6654;DHT22;3363;50.942;7.034;2023-04-24T04:05:02;12.70;58.30
6654;DHT22;3363;50.942;7.034;2023-04-24T04:07:29;12.80;58.40
6654;DHT22;3363;50.942;7.034;2023-04-24T04:09:56;12.80;58.20
6654;DHT22;3363;50.942;7.034;2023-04-24T04:12:23;12.80;56.90
6654;DHT22;3363;50.942;7.034;2023-04-24T04:14:51;12.70;57.60
6654;DHT22;3363;50.942;7.034;2023-04-24T04:17:18;12.60;58.20
6654;DHT22;3363;50.942;7.034;2023-04-24T04:19:45;12.70;58.60
6654;DHT22;3363;50.942;7.034;2023-04-24T04:22:12;12.60;59.10
6654;DHT22;3363;50.942;7.034;2023-04-24T04:24:39;12.70;58.00
6654;DHT22;3363;50.942;7.034;2023-04-24T04:27:06;12.70;58.70
6654;DHT22;3363;50.942;7.034;2023-04-24T04:29:33;12.50;58.70
6654;DHT22;3363;50.942;7.034;2023-04-24T04:32:03;12.60;57.00
6654;DHT22;3363;50.942;7.034;2023-04-24T04:34:29;12.50;58.30
6654;DHT22;3363;50.942;7.034;2023-04-24T04:36:57;12.60;58.20
6654;DHT22;3363;50.942;7.034;2023-04-24T04:39:26;12.50;58.00
6654;DHT22;3363;50.942;7.034;2023-04-24T04:41:55;12.60;58.30
6654;DHT22;3363;50.942;7.034;2023-04-24T04:44:22;12.50;57.70
6654;DHT22;3363;50.942;7.034;2023-04-24T04:46:50;12.50;57.50
6654;DHT22;3363;50.942;7.034;2023-04-24T04:49:20;12.50;58.10
6654;DHT22;3363;50.942;7.034;2023-04-24T04:51:47;12.50;57.70
6654;DHT22;3363;50.942;7.034;2023-04-24T04:54:14;12.40;56.50
6654;DHT22;3363;50.942;7.034;2023-04-24T04:56:41;12.50;58.30
6654;DHT22;3363;50.942;7.034;2023-04-24T04:59:08;12.50;58.00
6654;DHT22;3363;50.942;7.034;2023-04-24T05:01:35;12.40;58.90
6654;DHT22;3363;50.942;7.034;2023-04-24T05:04:02;12.40;59.20
6654;DHT22;3363;50.942;7.034;2023-04-24T05:06:30;12.40;59.00
6654;DHT22;3363;50.942;7.034;2023-04-24T05:08:57;12.40;58.60
6654;DHT22;3363;50.942;7.034;2023-04-24T05:11:24;12.40;57.70
6654;DHT22;3363;50.942;7.034;2023-04-24T05:13:51;12.30;59.00
6654;DHT22;3363;50.942;7.034;2023-04-24T05:16:18;12.20;58.20
6654;DHT22;3363;50.942;7.034;2023-04-24T05:18:46;12.30;59.40
6654;DHT22;3363;50.942;7.034;2023-04-24T05:21:13;12.40;58.90
6654;DHT22;3363;50.942;7.034;2023-04-24T05:23:41;12.40;59.20
6654;DHT22;3363;50.942;7.034;2023-04-24T05:26:08;12.40;59.00
6654;DHT22;3363;50.942;7.034;2023-04-24T05:28:35;12.50;57.00
6654;DHT22;3363;50.942;7.034;2023-04-24T05:31:02;12.40;58.60
6654;DHT22;3363;50.942;7.034;2023-04-24T05:33:29;12.40;58.60
6654;DHT22;3363;50.942;7.034;2023-04-24T05:35:56;12.40;58.70
6654;DHT22;3363;50.942;7.034;2023-04-24T05:38:23;12.30;59.10
6654;DHT22;3363;50.942;7.034;2023-04-24T05:40:51;12.10;57.50
6654;DHT22;3363;50.942;7.034;2023-04-24T05:43:18;12.00;59.40
6654;DHT22;3363;50.942;7.034;2023-04-24T05:45:45;12.00;60.00
6654;DHT22;3363;50.942;7.034;2023-04-24T05:48:12;12.00;59.90
6654;DHT22;3363;50.942;7.034;2023-04-24T05:50:38;11.90;61.10
6654;DHT22;3363;50.942;7.034;2023-04-24T05:53:06;12.10;61.30
6654;DHT22;3363;50.942;7.034;2023-04-24T05:55:33;12.10;60.40
6654;DHT22;3363;50.942;7.034;2023-04-24T05:58:02;12.10;60.30
6654;DHT22;3363;50.942;7.034;2023-04-24T06:00:29;12.20;60.40
6654;DHT22;3363;50.942;7.034;2023-04-24T06:02:56;12.20;60.60
6654;DHT22;3363;50.942;7.034;2023-04-24T06:05:23;12.20;61.00
6654;DHT22;3363;50.942;7.034;2023-04-24T06:07:51;12.10;61.20
6654;DHT22;3363;50.942;7.034;2023-04-24T06:10:18;12.10;61.50
6654;DHT22;3363;50.942;7.034;2023-04-24T06:12:44;12.20;60.70
6654;DHT22;3363;50.942;7.034;2023-04-24T06:15:13;12.20;61.60
6654;DHT22;3363;50.942;7.034;2023-04-24T06:17:39;12.20;61.30
6654;DHT22;3363;50.942;7.034;2023-04-24T06:20:07;12.20;61.40
6654;DHT22;3363;50.942;7.034;2023-04-24T06:22:34;12.20;61.80
6654;DHT22;3363;50.942;7.034;2023-04-24T06:25:01;12.20;61.70
6654;DHT22;3363;50.942;7.034;2023-04-24T06:27:28;12.10;61.90
6654;DHT22;3363;50.942;7.034;2023-04-24T06:29:55;12.10;62.00
6654;DHT22;3363;50.942;7.034;2023-04-24T06:32:24;12.20;62.30
6654;DHT22;3363;50.942;7.034;2023-04-24T06:34:51;12.10;63.00
6654;DHT22;3363;50.942;7.034;2023-04-24T06:37:18;11.90;64.40
6654;DHT22;3363;50.942;7.034;2023-04-24T06:39:46;12.00;64.50
6654;DHT22;3363;50.942;7.034;2023-04-24T06:42:12;12.00;64.90
6654;DHT22;3363;50.942;7.034;2023-04-24T06:44:39;11.90;65.30
6654;DHT22;3363;50.942;7.034;2023-04-24T06:47:07;12.00;64.70
6654;DHT22;3363;50.942;7.034;2023-04-24T06:49:37;12.00;66.60
6654;DHT22;3363;50.942;7.034;2023-04-24T06:52:04;12.00;67.00
6654;DHT22;3363;50.942;7.034;2023-04-24T06:54:31;12.00;66.30
6654;DHT22;3363;50.942;7.034;2023-04-24T06:57:00;11.90;66.50
6654;DHT22;3363;50.942;7.034;2023-04-24T06:59:28;12.00;66.60
6654;DHT22;3363;50.942;7.034;2023-04-24T07:01:55;11.90;67.10
6654;DHT22;3363;50.942;7.034;2023-04-24T07:04:22;12.00;66.80
6654;DHT22;3363;50.942;7.034;2023-04-24T07:06:52;12.00;66.90
6654;DHT22;3363;50.942;7.034;2023-04-24T07:09:21;12.00;67.30
6654;DHT22;3363;50.942;7.034;2023-04-24T07:11:49;12.00;69.20
6654;DHT22;3363;50.942;7.034;2023-04-24T07:14:17;12.00;68.60
6654;DHT22;3363;50.942;7.034;2023-04-24T07:16:44;11.90;69.10
6654;DHT22;3363;50.942;7.034;2023-04-24T07:19:11;11.80;69.70
6654;DHT22;3363;50.942;7.034;2023-04-24T07:21:38;11.90;69.70
6654;DHT22;3363;50.942;7.034;2023-04-24T07:24:07;11.80;70.40
6654;DHT22;3363;50.942;7.034;2023-04-24T07:26:37;11.80;71.40
6654;DHT22;3363;50.942;7.034;2023-04-24T07:29:04;11.80;71.50
6654;DHT22;3363;50.942;7.034;2023-04-24T07:31:31;11.80;71.50
6654;DHT22;3363;50.942;7.034;2023-04-24T07:34:01;11.80;72.50
6654;DHT22;3363;50.942;7.034;2023-04-24T07:36:39;11.80;71.70
6654;DHT22;3363;50.942;7.034;2023-04-24T07:39:09;11.90;71.80
6654;DHT22;3363;50.942;7.034;2023-04-24T07:41:36;12.00;71.40
6654;DHT22;3363;50.942;7.034;2023-04-24T07:44:03;12.00;71.10
6654;DHT22;3363;50.942;7.034;2023-04-24T07:46:31;11.80;73.00
6654;DHT22;3363;50.942;7.034;2023-04-24T07:48:58;11.60;74.40
6654;DHT22;3363;50.942;7.034;2023-04-24T07:51:26;11.70;72.00
6654;DHT22;3363;50.942;7.034;2023-04-24T07:53:53;11.50;73.90
6654;DHT22;3363;50.942;7.034;2023-04-24T07:56:22;11.60;73.20
6654;DHT22;3363;50.942;7.034;2023-04-24T07:58:49;11.70;72.40
6654;DHT22;3363;50.942;7.034;2023-04-24T08:01:16;11.60;73.10
6654;DHT22;3363;50.942;7.034;2023-04-24T08:03:43;11.60;72.00
6654;DHT22;3363;50.942;7.034;2023-04-24T08:06:10;11.60;72.00
6654;DHT22;3363;50.942;7.034;2023-04-24T08:08:36;11.70;71.40
6654;DHT22;3363;50.942;7.034;2023-04-24T08:11:03;11.50;71.40
6654;DHT22;3363;50.942;7.034;2023-04-24T08:13:32;11.40;72.80
6654;DHT22;3363;50.942;7.034;2023-04-24T08:15:59;11.40;73.60
6654;DHT22;3363;50.942;7.034;2023-04-24T08:18:26;11.50;72.60
6654;DHT22;3363;50.942;7.034;2023-04-24T08:20:52;11.50;71.40
6654;DHT22;3363;50.942;7.034;2023-04-24T08:23:19;11.30;72.10
6654;DHT22;3363;50.942;7.034;2023-04-24T08:25:48;11.20;74.40
6654;DHT22;3363;50.942;7.034;2023-04-24T08:28:15;11.20;74.50
6654;DHT22;3363;50.942;7.034;2023-04-24T08:30:47;11.10;72.90
6654;DHT22;3363;50.942;7.034;2023-04-24T08:33:14;11.10;74.80
6654;DHT22;3363;50.942;7.034;2023-04-24T08:35:41;11.20;74.80
6654;DHT22;3363;50.942;7.034;2023-04-24T08:38:08;11.00;75.50
6654;DHT22;3363;50.942;7.034;2023-04-24T08:40:36;10.90;76.10
6654;DHT22;3363;50.942;7.034;2023-04-24T08:43:03;11.00;75.90
6654;DHT22;3363;50.942;7.034;2023-04-24T08:45:30;11.10;74.50
6654;DHT22;3363;50.942;7.034;2023-04-24T08:48:00;11.10;72.80
6654;DHT22;3363;50.942;7.034;2023-04-24T08:50:29;11.20;72.10
6654;DHT22;3363;50.942;7.034;2023-04-24T08:52:56;11.20;72.30
6654;DHT22;3363;50.942;7.034;2023-04-24T08:55:24;11.10;72.80
6654;DHT22;3363;50.942;7.034;2023-04-24T08:57:52;11.00;74.20
6654;DHT22;3363;50.942;7.034;2023-04-24T09:00:20;11.10;73.60
6654;DHT22;3363;50.942;7.034;2023-04-24T09:02:49;11.20;72.70
6654;DHT22;3363;50.942;7.034;2023-04-24T09:05:18;11.20;72.60
6654;DHT22;3363;50.942;7.034;2023-04-24T09:07:47;11.10;72.00
6654;DHT22;3363;50.942;7.034;2023-04-24T09:10:16;11.10;73.40
6654;DHT22;3363;50.942;7.034;2023-04-24T09:12:44;11.20;72.50
6654;DHT22;3363;50.942;7.034;2023-04-24T09:15:11;11.20;73.40
6654;DHT22;3363;50.942;7.034;2023-04-24T09:17:38;11.10;72.80
6654;DHT22;3363;50.942;7.034;2023-04-24T09:20:06;11.00;74.60
6654;DHT22;3363;50.942;7.034;2023-04-24T09:22:37;10.90;75.30
6654;DHT22;3363;50.942;7.034;2023-04-24T09:25:05;10.80;77.90
6654;DHT22;3363;50.942;7.034;2023-04-24T09:27:32;10.90;76.70
6654;DHT22;3363;50.942;7.034;2023-04-24T09:30:01;10.70;79.20
6654;DHT22;3363;50.942;7.034;2023-04-24T09:32:28;10.80;80.60
6654;DHT22;3363;50.942;7.034;2023-04-24T09:35:10;10.70;79.60
6654;DHT22;3363;50.942;7.034;2023-04-24T09:37:40;10.70;80.40
6654;DHT22;3363;50.942;7.034;2023-04-24T09:40:09;10.80;81.80
6654;DHT22;3363;50.942;7.034;2023-04-24T09:42:36;11.00;79.80
6654;DHT22;3363;50.942;7.034;2023-04-24T09:45:04;11.10;78.40
6654;DHT22;3363;50.942;7.034;2023-04-24T09:47:36;10.90;81.60
6654;DHT22;3363;50.942;7.034;2023-04-24T09:50:09;10.90;82.10
6654;DHT22;3363;50.942;7.034;2023-04-24T09:52:41;10.90;81.70
6654;DHT22;3363;50.942;7.034;2023-04-24T09:55:18;11.00;81.20
6654;DHT22;3363;50.942;7.034;2023-04-24T09:57:52;11.20;80.00
6654;DHT22;3363;50.942;7.034;2023-04-24T10:00:23;11.20;81.40
6654;DHT22;3363;50.942;7.034;2023-04-24T10:02:54;11.10;82.60
6654;DHT22;3363;50.942;7.034;2023-04-24T10:05:28;11.20;81.30
6654;DHT22;3363;50.942;7.034;2023-04-24T10:08:03;11.20;81.60
6654;DHT22;3363;50.942;7.034;2023-04-24T10:10:30;11.20;81.30
6654;DHT22;3363;50.942;7.034;2023-04-24T10:12:58;11.20;83.60
6654;DHT22;3363;50.942;7.034;2023-04-24T10:15:26;11.00;86.00
6654;DHT22;3363;50.942;7.034;2023-04-24T10:17:53;11.00;85.80
6654;DHT22;3363;50.942;7.034;2023-04-24T10:20:22;10.90;87.40
6654;DHT22;3363;50.942;7.034;2023-04-24T10:22:50;11.20;85.60
6654;DHT22;3363;50.942;7.034;2023-04-24T10:25:20;11.20;86.20
6654;DHT22;3363;50.942;7.034;2023-04-24T10:27:48;11.30;84.70
6654;DHT22;3363;50.942;7.034;2023-04-24T10:30:16;11.30;84.20
6654;DHT22;3363;50.942;7.034;2023-04-24T10:32:43;11.40;84.40
6654;DHT22;3363;50.942;7.034;2023-04-24T10:35:12;11.40;85.10
6654;DHT22;3363;50.942;7.034;2023-04-24T10:37:42;11.40;84.50
6654;DHT22;3363;50.942;7.034;2023-04-24T10:40:10;11.60;82.50
6654;DHT22;3363;50.942;7.034;2023-04-24T10:42:41;11.40;84.70
6654;DHT22;3363;50.942;7.034;2023-04-24T10:45:16;11.50;84.10
6654;DHT22;3363;50.942;7.034;2023-04-24T10:47:51;11.50;82.40
6654;DHT22;3363;50.942;7.034;2023-04-24T10:50:18;11.60;83.60
6654;DHT22;3363;50.942;7.034;2023-04-24T10:52:46;11.50;82.00
6654;DHT22;3363;50.942;7.034;2023-04-24T10:55:14;11.40;82.40
6654;DHT22;3363;50.942;7.034;2023-04-24T10:58:03;11.10;86.70
6654;DHT22;3363;50.942;7.034;2023-04-24T11:00:30;11.00;85.60
6654;DHT22;3363;50.942;7.034;2023-04-24T11:02:57;11.10;89.80
6654;DHT22;3363;50.942;7.034;2023-04-24T11:05:50;11.20;87.20
6654;DHT22;3363;50.942;7.034;2023-04-24T11:08:25;11.30;85.30
6654;DHT22;3363;50.942;7.034;2023-04-24T11:10:59;11.20;85.00
6654;DHT22;3363;50.942;7.034;2023-04-24T11:14:01;11.20;85.30
6654;DHT22;3363;50.942;7.034;2023-04-24T11:16:29;11.20;84.10
6654;DHT22;3363;50.942;7.034;2023-04-24T11:19:01;11.10;86.50
6654;DHT22;3363;50.942;7.034;2023-04-24T11:21:31;11.00;88.90
6654;DHT22;3363;50.942;7.034;2023-04-24T11:23:58;11.00;88.60
6654;DHT22;3363;50.942;7.034;2023-04-24T11:26:45;11.10;91.10
6654;DHT22;3363;50.942;7.034;2023-04-24T11:29:14;10.90;91.40
6654;DHT22;3363;50.942;7.034;2023-04-24T11:31:41;10.80;92.80
6654;DHT22;3363;50.942;7.034;2023-04-24T11:34:14;10.90;92.60
6654;DHT22;3363;50.942;7.034;2023-04-24T11:36:43;10.90;92.30
6654;DHT22;3363;50.942;7.034;2023-04-24T11:39:10;11.00;91.60
6654;DHT22;3363;50.942;7.034;2023-04-24T11:41:38;11.10;90.60
6654;DHT22;3363;50.942;7.034;2023-04-24T11:44:06;11.30;89.60
6654;DHT22;3363;50.942;7.034;2023-04-24T11:46:35;11.20;90.40
6654;DHT22;3363;50.942;7.034;2023-04-24T11:49:03;11.20;91.10
6654;DHT22;3363;50.942;7.034;2023-04-24T11:51:30;11.10;91.00
6654;DHT22;3363;50.942;7.034;2023-04-24T11:53:58;11.10;91.40
6654;DHT22;3363;50.942;7.034;2023-04-24T11:56:25;11.10;92.10
6654;DHT22;3363;50.942;7.034;2023-04-24T11:58:53;11.40;92.70
6654;DHT22;3363;50.942;7.034;2023-04-24T12:01:20;11.60;92.30
6654;DHT22;3363;50.942;7.034;2023-04-24T12:03:49;11.90;90.20
6654;DHT22;3363;50.942;7.034;2023-04-24T12:06:16;11.90;91.50
6654;DHT22;3363;50.942;7.034;2023-04-24T12:08:46;11.70;92.50
6654;DHT22;3363;50.942;7.034;2023-04-24T12:11:15;11.70;94.10
6654;DHT22;3363;50.942;7.034;2023-04-24T12:13:43;11.60;91.60
6654;DHT22;3363;50.942;7.034;2023-04-24T12:16:10;11.70;93.50
6654;DHT22;3363;50.942;7.034;2023-04-24T12:18:42;11.80;92.00
6654;DHT22;3363;50.942;7.034;2023-04-24T12:21:18;11.80;91.50
6654;DHT22;3363;50.942;7.034;2023-04-24T12:23:46;11.60;91.40
6654;DHT22;3363;50.942;7.034;2023-04-24T12:26:16;11.60;92.40
6654;DHT22;3363;50.942;7.034;2023-04-24T12:28:47;11.60;91.70
6654;DHT22;3363;50.942;7.034;2023-04-24T12:31:15;11.60;90.80
6654;DHT22;3363;50.942;7.034;2023-04-24T12:33:42;11.60;91.20
6654;DHT22;3363;50.942;7.034;2023-04-24T12:36:10;11.80;93.20
6654;DHT22;3363;50.942;7.034;2023-04-24T12:38:42;11.80;89.50
6654;DHT22;3363;50.942;7.034;2023-04-24T12:41:12;11.70;89.20
6654;DHT22;3363;50.942;7.034;2023-04-24T12:43:51;11.60;89.00
6654;DHT22;3363;50.942;7.034;2023-04-24T12:49:24;11.80;90.50
6654;DHT22;3363;50.942;7.034;2023-04-24T12:51:51;12.00;88.30
6654;DHT22;3363;50.942;7.034;2023-04-24T12:54:20;12.00;86.20
6654;DHT22;3363;50.942;7.034;2023-04-24T12:56:47;11.90;83.00
6654;DHT22;3363;50.942;7.034;2023-04-24T12:59:14;11.80;83.90
6654;DHT22;3363;50.942;7.034;2023-04-24T13:01:41;11.70;81.20
6654;DHT22;3363;50.942;7.034;2023-04-24T13:04:08;11.60;79.30
6654;DHT22;3363;50.942;7.034;2023-04-24T13:06:35;11.60;81.60
6654;DHT22;3363;50.942;7.034;2023-04-24T13:09:02;11.50;80.80
6654;DHT22;3363;50.942;7.034;2023-04-24T13:11:30;11.50;84.40
6654;DHT22;3363;50.942;7.034;2023-04-24T13:13:57;11.60;89.50
6654;DHT22;3363;50.942;7.034;2023-04-24T13:16:24;11.70;84.20
6654;DHT22;3363;50.942;7.034;2023-04-24T13:18:51;11.80;82.30
6654;DHT22;3363;50.942;7.034;2023-04-24T13:21:18;11.60;78.00
6654;DHT22;3363;50.942;7.034;2023-04-24T13:23:47;11.80;80.40
6654;DHT22;3363;50.942;7.034;2023-04-24T13:26:13;12.00;82.30
6654;DHT22;3363;50.942;7.034;2023-04-24T13:28:42;12.00;77.40
6654;DHT22;3363;50.942;7.034;2023-04-24T13:31:09;11.70;77.20
6654;DHT22;3363;50.942;7.034;2023-04-24T13:33:36;11.60;76.40
6654;DHT22;3363;50.942;7.034;2023-04-24T13:36:04;11.50;71.00
6654;DHT22;3363;50.942;7.034;2023-04-24T13:38:31;11.60;74.70
6654;DHT22;3363;50.942;7.034;2023-04-24T13:40:58;11.60;73.40
6654;DHT22;3363;50.942;7.034;2023-04-24T13:43:25;11.70;78.90
6654;DHT22;3363;50.942;7.034;2023-04-24T13:45:55;12.10;67.60
6654;DHT22;3363;50.942;7.034;2023-04-24T13:48:22;12.20;67.50
6654;DHT22;3363;50.942;7.034;2023-04-24T13:50:49;12.10;66.60
6654;DHT22;3363;50.942;7.034;2023-04-24T13:53:17;11.90;65.00
6654;DHT22;3363;50.942;7.034;2023-04-24T13:55:44;12.00;66.40
6654;DHT22;3363;50.942;7.034;2023-04-24T13:58:11;12.00;67.10
6654;DHT22;3363;50.942;7.034;2023-04-24T14:00:38;12.00;66.80
6654;DHT22;3363;50.942;7.034;2023-04-24T14:03:06;12.00;67.90
6654;DHT22;3363;50.942;7.034;2023-04-24T14:05:33;11.90;64.40
6654;DHT22;3363;50.942;7.034;2023-04-24T14:08:00;11.90;69.70
6654;DHT22;3363;50.942;7.034;2023-04-24T14:10:27;12.10;66.40
6654;DHT22;3363;50.942;7.034;2023-04-24T14:12:54;12.20;63.40
6654;DHT22;3363;50.942;7.034;2023-04-24T14:15:21;12.30;63.00
6654;DHT22;3363;50.942;7.034;2023-04-24T14:17:48;12.30;62.40
6654;DHT22;3363;50.942;7.034;2023-04-24T14:20:16;12.00;61.70
6654;DHT22;3363;50.942;7.034;2023-04-24T14:22:43;12.00;64.00
6654;DHT22;3363;50.942;7.034;2023-04-24T14:25:10;11.90;62.40
6654;DHT22;3363;50.942;7.034;2023-04-24T14:27:37;11.80;62.20
6654;DHT22;3363;50.942;7.034;2023-04-24T14:30:06;12.00;63.30
6654;DHT22;3363;50.942;7.034;2023-04-24T14:32:34;12.00;62.80
6654;DHT22;3363;50.942;7.034;2023-04-24T14:35:01;12.10;63.40
6654;DHT22;3363;50.942;7.034;2023-04-24T14:37:29;12.10;61.70
6654;DHT22;3363;50.942;7.034;2023-04-24T14:39:56;12.10;59.60
6654;DHT22;3363;50.942;7.034;2023-04-24T14:42:23;12.30;61.70
6654;DHT22;3363;50.942;7.034;2023-04-24T14:44:51;12.50;59.50
6654;DHT22;3363;50.942;7.034;2023-04-24T14:47:17;12.60;58.40
6654;DHT22;3363;50.942;7.034;2023-04-24T14:49:46;12.60;58.70
6654;DHT22;3363;50.942;7.034;2023-04-24T14:52:13;12.80;59.20
6654;DHT22;3363;50.942;7.034;2023-04-24T14:54:42;12.80;58.20
6654;DHT22;3363;50.942;7.034;2023-04-24T14:57:10;12.60;56.00
6654;DHT22;3363;50.942;7.034;2023-04-24T14:59:37;12.40;54.40
6654;DHT22;3363;50.942;7.034;2023-04-24T15:02:03;12.30;56.50
6654;DHT22;3363;50.942;7.034;2023-04-24T15:04:30;12.30;56.90
6654;DHT22;3363;50.942;7.034;2023-04-24T15:06:57;12.30;56.60
6654;DHT22;3363;50.942;7.034;2023-04-24T15:09:24;12.40;55.30
6654;DHT22;3363;50.942;7.034;2023-04-24T15:11:54;12.40;56.40
6654;DHT22;3363;50.942;7.034;2023-04-24T15:14:22;12.40;57.40
6654;DHT22;3363;50.942;7.034;2023-04-24T15:16:49;12.40;57.80
6654;DHT22;3363;50.942;7.034;2023-04-24T15:19:15;12.40;57.00
6654;DHT22;3363;50.942;7.034;2023-04-24T15:21:42;12.30;55.20
6654;DHT22;3363;50.942;7.034;2023-04-24T15:24:10;12.20;56.60
6654;DHT22;3363;50.942;7.034;2023-04-24T15:26:37;12.20;59.10
6654;DHT22;3363;50.942;7.034;2023-04-24T15:29:05;12.20;58.60
6654;DHT22;3363;50.942;7.034;2023-04-24T15:31:32;12.20;58.40
6654;DHT22;3363;50.942;7.034;2023-04-24T15:33:59;12.30;58.80
6654;DHT22;3363;50.942;7.034;2023-04-24T15:36:26;12.40;57.20
6654;DHT22;3363;50.942;7.034;2023-04-24T15:38:53;12.40;58.70
6654;DHT22;3363;50.942;7.034;2023-04-24T15:41:20;12.40;57.60
6654;DHT22;3363;50.942;7.034;2023-04-24T15:43:46;12.40;57.30
6654;DHT22;3363;50.942;7.034;2023-04-24T15:46:15;12.40;57.40
6654;DHT22;3363;50.942;7.034;2023-04-24T15:48:42;12.30;57.20
6654;DHT22;3363;50.942;7.034;2023-04-24T15:51:09;12.40;57.30
6654;DHT22;3363;50.942;7.034;2023-04-24T15:53:36;12.30;55.40
6654;DHT22;3363;50.942;7.034;2023-04-24T15:56:03;12.30;57.60
6654;DHT22;3363;50.942;7.034;2023-04-24T15:58:30;12.40;57.70
6654;DHT22;3363;50.942;7.034;2023-04-24T16:00:57;12.40;58.00
6654;DHT22;3363;50.942;7.034;2023-04-24T16:03:25;12.30;57.80
6654;DHT22;3363;50.942;7.034;2023-04-24T16:05:53;12.30;57.70
6654;DHT22;3363;50.942;7.034;2023-04-24T16:08:19;12.30;57.90
6654;DHT22;3363;50.942;7.034;2023-04-24T16:10:47;12.30;58.80